sensor_id;sensor_type;location;lat;lon;timestamp;P1;durP1;ratioP1;P2;durP2;ratioP2
11008;SDS011;5557;51.670;7.788;2024-03-06T00:00:12;45.33;;;29.93;;
11008;SDS011;5557;51.670;7.788;2024-03-06T00:02:40;41.53;;;30.67;;
11008;SDS011;5557;51.670;7.788;2024-03-06T00:05:07;48.57;;;32.63;;
11008;SDS011;5557;51.670;7.788;2024-03-06T00:07:35;51.80;;;33.67;;
11008;SDS011;5557;51.670;7.788;2024-03-06T00:10:02;52.40;;;35.70;;
11008;SDS011;5557;51.670;7.788;2024-03-06T00:12:31;51.20;;;34.93;;
11008;SDS011;5557;51.670;7.788;2024-03-06T00:14:59;49.30;;;33.23;;
11008;SDS011;5557;51.670;7.788;2024-03-06T00:17:26;47.87;;;33.63;;
11008;SDS011;5557;51.670;7.788;2024-03-06T00:19:53;48.17;;;32.57;;
11008;SDS011;5557;51.670;7.788;2024-03-06T00:22:21;43.70;;;31.20;;
11008;SDS011;5557;51.670;7.788;2024-03-06T00:24:49;44.07;;;30.73;;
11008;SDS011;5557;51.670;7.788;2024-03-06T00:27:17;50.13;;;33.80;;
11008;SDS011;5557;51.670;7.788;2024-03-06T00:29:44;47.03;;;32.90;;
11008;SDS011;5557;51.670;7.788;2024-03-06T00:32:11;46.23;;;34.10;;
11008;SDS011;5557;51.670;7.788;2024-03-06T00:34:39;44.73;;;32.37;;
11008;SDS011;5557;51.670;7.788;2024-03-06T00:37:06;48.97;;;34.23;;
11008;SDS011;5557;51.670;7.788;2024-03-06T00:39:33;45.23;;;32.47;;
11008;SDS011;5557;51.670;7.788;2024-03-06T00:42:00;48.10;;;33.90;;
11008;SDS011;5557;51.670;7.788;2024-03-06T00:44:27;48.33;;;34.00;;
11008;SDS011;5557;51.670;7.788;2024-03-06T00:46:54;45.00;;;32.17;;
11008;SDS011;5557;51.670;7.788;2024-03-06T00:49:21;50.60;;;35.77;;
11008;SDS011;5557;51.670;7.788;2024-03-06T00:51:49;53.57;;;32.80;;
11008;SDS011;5557;51.670;7.788;2024-03-06T00:54:16;43.70;;;31.50;;
11008;SDS011;5557;51.670;7.788;2024-03-06T00:56:43;51.10;;;34.40;;
11008;SDS011;5557;51.670;7.788;2024-03-06T00:59:10;56.40;;;34.50;;
11008;SDS011;5557;51.670;7.788;2024-03-06T01:01:38;46.10;;;33.87;;
11008;SDS011;5557;51.670;7.788;2024-03-06T01:04:05;57.50;;;36.90;;
11008;SDS011;5557;51.670;7.788;2024-03-06T01:06:32;52.63;;;36.93;;
11008;SDS011;5557;51.670;7.788;2024-03-06T01:08:59;49.67;;;35.23;;
11008;SDS011;5557;51.670;7.788;2024-03-06T01:11:26;58.20;;;38.50;;
11008;SDS011;5557;51.670;7.788;2024-03-06T01:13:53;50.93;;;36.60;;
11008;SDS011;5557;51.670;7.788;2024-03-06T01:16:21;52.10;;;37.13;;
11008;SDS011;5557;51.670;7.788;2024-03-06T01:18:48;46.90;;;33.47;;
11008;SDS011;5557;51.670;7.788;2024-03-06T01:21:15;57.63;;;37.27;;
11008;SDS011;5557;51.670;7.788;2024-03-06T01:23:42;52.70;;;35.87;;
11008;SDS011;5557;51.670;7.788;2024-03-06T01:26:10;56.97;;;38.20;;
11008;SDS011;5557;51.670;7.788;2024-03-06T01:28:38;50.07;;;36.00;;
11008;SDS011;5557;51.670;7.788;2024-03-06T01:31:05;53.87;;;37.60;;
11008;SDS011;5557;51.670;7.788;2024-03-06T01:33:33;49.37;;;36.50;;
11008;SDS011;5557;51.670;7.788;2024-03-06T01:36:00;55.43;;;36.90;;
11008;SDS011;5557;51.670;7.788;2024-03-06T01:38:28;49.10;;;36.20;;
11008;SDS011;5557;51.670;7.788;2024-03-06T01:40:55;58.00;;;36.50;;
11008;SDS011;5557;51.670;7.788;2024-03-06T01:43:22;57.80;;;36.33;;
11008;SDS011;5557;51.670;7.788;2024-03-06T01:45:52;57.67;;;40.30;;
11008;SDS011;5557;51.670;7.788;2024-03-06T01:48:21;55.90;;;37.13;;
11008;SDS011;5557;51.670;7.788;2024-03-06T01:50:49;56.57;;;40.33;;
11008;SDS011;5557;51.670;7.788;2024-03-06T01:53:16;61.90;;;42.97;;
11008;SDS011;5557;51.670;7.788;2024-03-06T01:55:45;61.67;;;41.77;;
11008;SDS011;5557;51.670;7.788;2024-03-06T01:58:14;58.43;;;42.43;;
11008;SDS011;5557;51.670;7.788;2024-03-06T02:00:41;72.63;;;43.93;;
11008;SDS011;5557;51.670;7.788;2024-03-06T02:03:08;67.30;;;44.13;;
11008;SDS011;5557;51.670;7.788;2024-03-06T02:05:35;57.63;;;40.73;;
11008;SDS011;5557;51.670;7.788;2024-03-06T02:08:02;62.73;;;42.70;;
11008;SDS011;5557;51.670;7.788;2024-03-06T02:10:30;71.30;;;45.33;;
11008;SDS011;5557;51.670;7.788;2024-03-06T02:12:57;67.37;;;43.50;;
11008;SDS011;5557;51.670;7.788;2024-03-06T02:15:24;67.30;;;45.90;;
11008;SDS011;5557;51.670;7.788;2024-03-06T02:17:52;73.00;;;46.43;;
11008;SDS011;5557;51.670;7.788;2024-03-06T02:20:21;65.70;;;43.30;;
11008;SDS011;5557;51.670;7.788;2024-03-06T02:22:51;76.27;;;47.57;;
11008;SDS011;5557;51.670;7.788;2024-03-06T02:25:18;80.40;;;47.43;;
11008;SDS011;5557;51.670;7.788;2024-03-06T02:27:46;70.73;;;47.47;;
11008;SDS011;5557;51.670;7.788;2024-03-06T02:30:14;73.10;;;48.00;;
11008;SDS011;5557;51.670;7.788;2024-03-06T02:32:46;76.57;;;48.83;;
11008;SDS011;5557;51.670;7.788;2024-03-06T02:35:14;81.63;;;49.57;;
11008;SDS011;5557;51.670;7.788;2024-03-06T02:37:42;78.07;;;50.13;;
11008;SDS011;5557;51.670;7.788;2024-03-06T02:40:10;76.00;;;49.93;;
11008;SDS011;5557;51.670;7.788;2024-03-06T02:42:38;74.10;;;47.23;;
11008;SDS011;5557;51.670;7.788;2024-03-06T02:45:06;79.60;;;49.70;;
11008;SDS011;5557;51.670;7.788;2024-03-06T02:47:34;81.10;;;50.83;;
11008;SDS011;5557;51.670;7.788;2024-03-06T02:50:01;79.60;;;49.97;;
11008;SDS011;5557;51.670;7.788;2024-03-06T02:52:28;81.47;;;51.30;;
11008;SDS011;5557;51.670;7.788;2024-03-06T02:54:55;82.17;;;51.90;;
11008;SDS011;5557;51.670;7.788;2024-03-06T02:57:22;94.90;;;53.50;;
11008;SDS011;5557;51.670;7.788;2024-03-06T02:59:49;97.80;;;53.87;;
11008;SDS011;5557;51.670;7.788;2024-03-06T03:02:16;88.60;;;54.77;;
11008;SDS011;5557;51.670;7.788;2024-03-06T03:04:44;91.50;;;56.60;;
11008;SDS011;5557;51.670;7.788;2024-03-06T03:07:11;96.10;;;56.60;;
11008;SDS011;5557;51.670;7.788;2024-03-06T03:09:38;92.83;;;56.50;;
11008;SDS011;5557;51.670;7.788;2024-03-06T03:12:05;91.90;;;57.30;;
11008;SDS011;5557;51.670;7.788;2024-03-06T03:14:32;102.50;;;60.17;;
11008;SDS011;5557;51.670;7.788;2024-03-06T03:17:02;100.43;;;58.67;;
11008;SDS011;5557;51.670;7.788;2024-03-06T03:19:32;95.50;;;56.73;;
11008;SDS011;5557;51.670;7.788;2024-03-06T03:21:59;95.03;;;58.87;;
11008;SDS011;5557;51.670;7.788;2024-03-06T03:24:26;101.93;;;59.77;;
11008;SDS011;5557;51.670;7.788;2024-03-06T03:26:53;100.73;;;56.40;;
11008;SDS011;5557;51.670;7.788;2024-03-06T03:29:20;93.93;;;56.33;;
11008;SDS011;5557;51.670;7.788;2024-03-06T03:31:47;92.60;;;58.30;;
11008;SDS011;5557;51.670;7.788;2024-03-06T03:34:14;100.20;;;58.87;;
11008;SDS011;5557;51.670;7.788;2024-03-06T03:36:44;95.73;;;57.43;;
11008;SDS011;5557;51.670;7.788;2024-03-06T03:39:11;92.80;;;54.10;;
11008;SDS011;5557;51.670;7.788;2024-03-06T03:41:47;89.53;;;53.83;;
11008;SDS011;5557;51.670;7.788;2024-03-06T03:44:15;87.83;;;53.87;;
11008;SDS011;5557;51.670;7.788;2024-03-06T03:46:43;92.30;;;53.60;;
11008;SDS011;5557;51.670;7.788;2024-03-06T03:49:10;91.23;;;53.43;;
11008;SDS011;5557;51.670;7.788;2024-03-06T03:51:38;92.13;;;53.30;;
11008;SDS011;5557;51.670;7.788;2024-03-06T03:54:05;90.43;;;54.13;;
11008;SDS011;5557;51.670;7.788;2024-03-06T03:56:32;81.40;;;52.17;;
11008;SDS011;5557;51.670;7.788;2024-03-06T03:59:00;89.00;;;53.80;;
11008;SDS011;5557;51.670;7.788;2024-03-06T04:01:27;80.13;;;51.00;;
11008;SDS011;5557;51.670;7.788;2024-03-06T04:03:54;80.67;;;52.03;;
11008;SDS011;5557;51.670;7.788;2024-03-06T04:06:21;85.50;;;53.60;;
11008;SDS011;5557;51.670;7.788;2024-03-06T04:08:48;97.67;;;53.50;;
11008;SDS011;5557;51.670;7.788;2024-03-06T04:11:15;94.50;;;55.77;;
11008;SDS011;5557;51.670;7.788;2024-03-06T04:13:42;95.67;;;52.90;;
11008;SDS011;5557;51.670;7.788;2024-03-06T04:16:09;90.10;;;54.63;;
11008;SDS011;5557;51.670;7.788;2024-03-06T04:18:41;91.17;;;55.50;;
11008;SDS011;5557;51.670;7.788;2024-03-06T04:21:08;90.93;;;53.27;;
11008;SDS011;5557;51.670;7.788;2024-03-06T04:23:37;94.47;;;54.57;;
11008;SDS011;5557;51.670;7.788;2024-03-06T04:26:04;90.17;;;55.87;;
11008;SDS011;5557;51.670;7.788;2024-03-06T04:28:32;84.17;;;52.27;;
11008;SDS011;5557;51.670;7.788;2024-03-06T04:30:59;89.93;;;53.70;;
11008;SDS011;5557;51.670;7.788;2024-03-06T04:33:26;90.37;;;54.77;;
11008;SDS011;5557;51.670;7.788;2024-03-06T04:35:53;110.63;;;57.63;;
11008;SDS011;5557;51.670;7.788;2024-03-06T04:38:20;88.40;;;55.83;;
11008;SDS011;5557;51.670;7.788;2024-03-06T04:40:47;93.80;;;58.40;;
11008;SDS011;5557;51.670;7.788;2024-03-06T04:43:14;89.63;;;54.90;;
11008;SDS011;5557;51.670;7.788;2024-03-06T04:45:41;94.00;;;54.90;;
11008;SDS011;5557;51.670;7.788;2024-03-06T04:48:08;89.70;;;54.00;;
11008;SDS011;5557;51.670;7.788;2024-03-06T04:50:35;87.40;;;54.20;;
11008;SDS011;5557;51.670;7.788;2024-03-06T04:56:10;87.53;;;54.83;;
11008;SDS011;5557;51.670;7.788;2024-03-06T04:58:38;88.90;;;52.30;;
11008;SDS011;5557;51.670;7.788;2024-03-06T05:01:05;98.80;;;55.10;;
11008;SDS011;5557;51.670;7.788;2024-03-06T05:03:33;103.47;;;59.63;;
11008;SDS011;5557;51.670;7.788;2024-03-06T05:06:20;92.60;;;56.40;;
11008;SDS011;5557;51.670;7.788;2024-03-06T05:09:30;95.90;;;55.47;;
11008;SDS011;5557;51.670;7.788;2024-03-06T05:12:21;101.73;;;55.60;;
11008;SDS011;5557;51.670;7.788;2024-03-06T05:15:05;100.20;;;60.47;;
11008;SDS011;5557;51.670;7.788;2024-03-06T05:17:51;107.53;;;58.93;;
11008;SDS011;5557;51.670;7.788;2024-03-06T05:20:53;106.90;;;60.00;;
11008;SDS011;5557;51.670;7.788;2024-03-06T05:24:37;102.53;;;61.23;;
11008;SDS011;5557;51.670;7.788;2024-03-06T05:27:22;105.50;;;55.77;;
11008;SDS011;5557;51.670;7.788;2024-03-06T05:30:06;104.23;;;59.57;;
11008;SDS011;5557;51.670;7.788;2024-03-06T05:32:52;99.13;;;56.50;;
11008;SDS011;5557;51.670;7.788;2024-03-06T05:35:37;103.87;;;57.97;;
11008;SDS011;5557;51.670;7.788;2024-03-06T05:38:21;102.30;;;59.60;;
11008;SDS011;5557;51.670;7.788;2024-03-06T05:41:05;97.03;;;56.80;;
11008;SDS011;5557;51.670;7.788;2024-03-06T05:43:50;96.30;;;56.90;;
11008;SDS011;5557;51.670;7.788;2024-03-06T05:46:34;91.63;;;55.97;;
11008;SDS011;5557;51.670;7.788;2024-03-06T05:49:20;85.87;;;51.50;;
11008;SDS011;5557;51.670;7.788;2024-03-06T05:52:04;103.20;;;56.77;;
11008;SDS011;5557;51.670;7.788;2024-03-06T05:54:49;89.57;;;54.60;;
11008;SDS011;5557;51.670;7.788;2024-03-06T05:57:34;102.03;;;55.80;;
11008;SDS011;5557;51.670;7.788;2024-03-06T06:00:18;90.80;;;52.20;;
11008;SDS011;5557;51.670;7.788;2024-03-06T06:02:48;83.50;;;50.73;;
11008;SDS011;5557;51.670;7.788;2024-03-06T06:05:15;89.17;;;50.33;;
11008;SDS011;5557;51.670;7.788;2024-03-06T06:07:52;88.80;;;53.37;;
11008;SDS011;5557;51.670;7.788;2024-03-06T06:10:19;98.73;;;55.17;;
11008;SDS011;5557;51.670;7.788;2024-03-06T06:12:48;96.67;;;55.80;;
11008;SDS011;5557;51.670;7.788;2024-03-06T06:15:16;108.00;;;57.73;;
11008;SDS011;5557;51.670;7.788;2024-03-06T06:17:43;113.30;;;61.60;;
11008;SDS011;5557;51.670;7.788;2024-03-06T06:20:12;124.23;;;57.87;;
11008;SDS011;5557;51.670;7.788;2024-03-06T06:22:45;108.00;;;57.90;;
11008;SDS011;5557;51.670;7.788;2024-03-06T06:25:11;106.67;;;56.47;;
11008;SDS011;5557;51.670;7.788;2024-03-06T06:27:39;110.10;;;59.30;;
11008;SDS011;5557;51.670;7.788;2024-03-06T06:30:06;106.47;;;57.07;;
11008;SDS011;5557;51.670;7.788;2024-03-06T06:32:39;100.00;;;54.60;;
11008;SDS011;5557;51.670;7.788;2024-03-06T06:35:09;108.10;;;55.67;;
11008;SDS011;5557;51.670;7.788;2024-03-06T06:37:38;103.20;;;57.30;;
11008;SDS011;5557;51.670;7.788;2024-03-06T06:40:07;119.30;;;59.93;;
11008;SDS011;5557;51.670;7.788;2024-03-06T06:42:44;119.23;;;61.27;;
11008;SDS011;5557;51.670;7.788;2024-03-06T06:45:18;120.03;;;61.97;;
11008;SDS011;5557;51.670;7.788;2024-03-06T06:47:47;122.17;;;60.50;;
11008;SDS011;5557;51.670;7.788;2024-03-06T06:50:15;114.50;;;58.80;;
11008;SDS011;5557;51.670;7.788;2024-03-06T06:52:42;112.80;;;60.33;;
11008;SDS011;5557;51.670;7.788;2024-03-06T06:55:09;111.63;;;58.37;;
11008;SDS011;5557;51.670;7.788;2024-03-06T06:57:38;114.70;;;56.70;;
11008;SDS011;5557;51.670;7.788;2024-03-06T07:00:05;95.40;;;53.40;;
11008;SDS011;5557;51.670;7.788;2024-03-06T07:02:37;82.43;;;48.53;;
11008;SDS011;5557;51.670;7.788;2024-03-06T07:05:06;81.30;;;47.60;;
11008;SDS011;5557;51.670;7.788;2024-03-06T07:07:35;68.40;;;46.07;;
11008;SDS011;5557;51.670;7.788;2024-03-06T07:10:02;70.70;;;43.30;;
11008;SDS011;5557;51.670;7.788;2024-03-06T07:12:30;68.43;;;41.60;;
11008;SDS011;5557;51.670;7.788;2024-03-06T07:14:57;71.57;;;43.90;;
11008;SDS011;5557;51.670;7.788;2024-03-06T07:17:25;63.27;;;40.83;;
11008;SDS011;5557;51.670;7.788;2024-03-06T07:19:52;59.93;;;38.17;;
11008;SDS011;5557;51.670;7.788;2024-03-06T07:22:19;56.77;;;38.33;;
11008;SDS011;5557;51.670;7.788;2024-03-06T07:24:47;57.23;;;36.80;;
11008;SDS011;5557;51.670;7.788;2024-03-06T07:27:14;63.43;;;36.80;;
11008;SDS011;5557;51.670;7.788;2024-03-06T07:29:41;55.43;;;35.17;;
11008;SDS011;5557;51.670;7.788;2024-03-06T07:32:08;63.90;;;36.23;;
11008;SDS011;5557;51.670;7.788;2024-03-06T07:34:36;54.30;;;33.80;;
11008;SDS011;5557;51.670;7.788;2024-03-06T07:37:03;60.80;;;37.07;;
11008;SDS011;5557;51.670;7.788;2024-03-06T07:39:31;61.90;;;36.37;;
11008;SDS011;5557;51.670;7.788;2024-03-06T07:41:58;58.40;;;36.50;;
11008;SDS011;5557;51.670;7.788;2024-03-06T07:44:25;65.17;;;37.40;;
11008;SDS011;5557;51.670;7.788;2024-03-06T07:46:53;66.50;;;37.80;;
11008;SDS011;5557;51.670;7.788;2024-03-06T07:49:20;59.80;;;36.30;;
11008;SDS011;5557;51.670;7.788;2024-03-06T07:51:48;60.73;;;38.27;;
11008;SDS011;5557;51.670;7.788;2024-03-06T07:54:15;66.73;;;37.13;;
11008;SDS011;5557;51.670;7.788;2024-03-06T07:56:42;60.20;;;35.20;;
11008;SDS011;5557;51.670;7.788;2024-03-06T07:59:09;54.17;;;35.20;;
11008;SDS011;5557;51.670;7.788;2024-03-06T08:01:39;60.80;;;37.60;;
11008;SDS011;5557;51.670;7.788;2024-03-06T08:04:06;64.17;;;36.20;;
11008;SDS011;5557;51.670;7.788;2024-03-06T08:06:33;54.53;;;35.37;;
11008;SDS011;5557;51.670;7.788;2024-03-06T08:09:04;53.00;;;34.73;;
11008;SDS011;5557;51.670;7.788;2024-03-06T08:11:33;56.87;;;35.63;;
11008;SDS011;5557;51.670;7.788;2024-03-06T08:14:00;59.23;;;35.30;;
11008;SDS011;5557;51.670;7.788;2024-03-06T08:16:28;58.20;;;37.30;;
11008;SDS011;5557;51.670;7.788;2024-03-06T08:19:00;61.40;;;35.87;;
11008;SDS011;5557;51.670;7.788;2024-03-06T08:21:27;57.87;;;35.53;;
11008;SDS011;5557;51.670;7.788;2024-03-06T08:23:54;54.67;;;36.70;;
11008;SDS011;5557;51.670;7.788;2024-03-06T08:26:21;57.37;;;36.70;;
11008;SDS011;5557;51.670;7.788;2024-03-06T08:28:49;60.87;;;36.47;;
11008;SDS011;5557;51.670;7.788;2024-03-06T08:31:18;58.70;;;35.13;;
11008;SDS011;5557;51.670;7.788;2024-03-06T08:33:45;59.93;;;36.03;;
11008;SDS011;5557;51.670;7.788;2024-03-06T08:36:13;65.53;;;35.87;;
11008;SDS011;5557;51.670;7.788;2024-03-06T08:38:40;58.00;;;36.03;;
11008;SDS011;5557;51.670;7.788;2024-03-06T08:41:10;62.43;;;34.87;;
11008;SDS011;5557;51.670;7.788;2024-03-06T08:43:37;53.60;;;33.33;;
11008;SDS011;5557;51.670;7.788;2024-03-06T08:46:04;55.17;;;35.00;;
11008;SDS011;5557;51.670;7.788;2024-03-06T08:48:31;59.13;;;35.77;;
11008;SDS011;5557;51.670;7.788;2024-03-06T08:50:58;58.57;;;37.10;;
11008;SDS011;5557;51.670;7.788;2024-03-06T08:53:25;60.17;;;36.83;;
11008;SDS011;5557;51.670;7.788;2024-03-06T08:55:52;70.63;;;36.63;;
11008;SDS011;5557;51.670;7.788;2024-03-06T08:58:20;57.23;;;36.03;;
11008;SDS011;5557;51.670;7.788;2024-03-06T09:00:47;54.73;;;32.30;;
11008;SDS011;5557;51.670;7.788;2024-03-06T09:03:15;55.37;;;33.10;;
11008;SDS011;5557;51.670;7.788;2024-03-06T09:05:42;58.43;;;35.23;;
11008;SDS011;5557;51.670;7.788;2024-03-06T09:08:10;57.00;;;34.83;;
11008;SDS011;5557;51.670;7.788;2024-03-06T09:10:38;64.23;;;35.57;;
11008;SDS011;5557;51.670;7.788;2024-03-06T09:13:05;63.07;;;37.70;;
11008;SDS011;5557;51.670;7.788;2024-03-06T09:15:33;66.03;;;38.97;;
11008;SDS011;5557;51.670;7.788;2024-03-06T09:18:00;62.30;;;35.50;;
11008;SDS011;5557;51.670;7.788;2024-03-06T09:20:27;58.47;;;35.30;;
11008;SDS011;5557;51.670;7.788;2024-03-06T09:22:56;57.07;;;34.97;;
11008;SDS011;5557;51.670;7.788;2024-03-06T09:25:25;65.77;;;36.40;;
11008;SDS011;5557;51.670;7.788;2024-03-06T09:27:55;63.10;;;35.77;;
11008;SDS011;5557;51.670;7.788;2024-03-06T09:30:23;63.07;;;36.57;;
11008;SDS011;5557;51.670;7.788;2024-03-06T09:32:50;60.47;;;35.77;;
11008;SDS011;5557;51.670;7.788;2024-03-06T09:35:18;57.10;;;35.50;;
11008;SDS011;5557;51.670;7.788;2024-03-06T09:37:45;54.70;;;33.83;;
11008;SDS011;5557;51.670;7.788;2024-03-06T09:40:19;58.87;;;35.93;;
11008;SDS011;5557;51.670;7.788;2024-03-06T09:42:49;54.63;;;34.27;;
11008;SDS011;5557;51.670;7.788;2024-03-06T09:45:17;66.83;;;36.40;;
11008;SDS011;5557;51.670;7.788;2024-03-06T09:47:46;61.17;;;37.13;;
11008;SDS011;5557;51.670;7.788;2024-03-06T09:50:16;61.07;;;37.17;;
11008;SDS011;5557;51.670;7.788;2024-03-06T09:52:48;64.40;;;38.60;;
11008;SDS011;5557;51.670;7.788;2024-03-06T09:55:18;60.50;;;36.47;;
11008;SDS011;5557;51.670;7.788;2024-03-06T09:57:45;71.63;;;38.23;;
11008;SDS011;5557;51.670;7.788;2024-03-06T10:00:12;60.67;;;37.47;;
11008;SDS011;5557;51.670;7.788;2024-03-06T10:03:02;58.87;;;37.23;;
11008;SDS011;5557;51.670;7.788;2024-03-06T10:05:31;69.83;;;37.60;;
11008;SDS011;5557;51.670;7.788;2024-03-06T10:08:03;58.40;;;35.87;;
11008;SDS011;5557;51.670;7.788;2024-03-06T10:10:31;57.20;;;35.27;;
11008;SDS011;5557;51.670;7.788;2024-03-06T10:12:58;54.20;;;34.07;;
11008;SDS011;5557;51.670;7.788;2024-03-06T10:15:26;48.57;;;31.33;;
11008;SDS011;5557;51.670;7.788;2024-03-06T10:18:11;53.50;;;33.00;;
11008;SDS011;5557;51.670;7.788;2024-03-06T10:20:42;49.57;;;32.13;;
11008;SDS011;5557;51.670;7.788;2024-03-06T10:23:10;48.70;;;31.47;;
11008;SDS011;5557;51.670;7.788;2024-03-06T10:25:37;43.80;;;29.33;;
11008;SDS011;5557;51.670;7.788;2024-03-06T10:28:08;49.20;;;25.60;;
11008;SDS011;5557;51.670;7.788;2024-03-06T10:30:36;39.70;;;26.77;;
11008;SDS011;5557;51.670;7.788;2024-03-06T10:33:08;36.73;;;25.93;;
11008;SDS011;5557;51.670;7.788;2024-03-06T10:35:36;48.20;;;25.53;;
11008;SDS011;5557;51.670;7.788;2024-03-06T10:38:04;38.07;;;26.20;;
11008;SDS011;5557;51.670;7.788;2024-03-06T10:40:36;43.70;;;27.67;;
11008;SDS011;5557;51.670;7.788;2024-03-06T10:43:07;42.30;;;27.10;;
11008;SDS011;5557;51.670;7.788;2024-03-06T10:45:48;42.00;;;27.30;;
11008;SDS011;5557;51.670;7.788;2024-03-06T10:48:25;49.47;;;29.30;;
11008;SDS011;5557;51.670;7.788;2024-03-06T10:50:55;43.30;;;28.93;;
11008;SDS011;5557;51.670;7.788;2024-03-06T10:53:23;36.70;;;26.60;;
11008;SDS011;5557;51.670;7.788;2024-03-06T10:55:55;44.90;;;27.57;;
11008;SDS011;5557;51.670;7.788;2024-03-06T10:58:24;39.47;;;25.90;;
11008;SDS011;5557;51.670;7.788;2024-03-06T11:00:52;36.13;;;26.63;;
11008;SDS011;5557;51.670;7.788;2024-03-06T11:03:21;65.50;;;28.87;;
11008;SDS011;5557;51.670;7.788;2024-03-06T11:05:49;46.27;;;26.53;;
11008;SDS011;5557;51.670;7.788;2024-03-06T11:08:18;42.97;;;27.47;;
11008;SDS011;5557;51.670;7.788;2024-03-06T11:10:46;49.23;;;30.50;;
11008;SDS011;5557;51.670;7.788;2024-03-06T11:13:23;46.50;;;28.87;;
11008;SDS011;5557;51.670;7.788;2024-03-06T11:15:57;41.93;;;25.97;;
11008;SDS011;5557;51.670;7.788;2024-03-06T11:18:43;43.73;;;26.57;;
11008;SDS011;5557;51.670;7.788;2024-03-06T11:24:14;31.63;;;23.17;;
11008;SDS011;5557;51.670;7.788;2024-03-06T11:26:42;27.20;;;21.07;;
11008;SDS011;5557;51.670;7.788;2024-03-06T11:29:13;31.53;;;22.57;;
11008;SDS011;5557;51.670;7.788;2024-03-06T11:31:59;33.17;;;20.80;;
11008;SDS011;5557;51.670;7.788;2024-03-06T11:34:33;31.50;;;20.70;;
11008;SDS011;5557;51.670;7.788;2024-03-06T11:37:05;37.73;;;22.43;;
11008;SDS011;5557;51.670;7.788;2024-03-06T11:39:36;32.30;;;21.07;;
11008;SDS011;5557;51.670;7.788;2024-03-06T11:42:05;29.83;;;20.43;;
11008;SDS011;5557;51.670;7.788;2024-03-06T11:44:35;33.47;;;23.07;;
11008;SDS011;5557;51.670;7.788;2024-03-06T11:47:03;39.17;;;23.00;;
11008;SDS011;5557;51.670;7.788;2024-03-06T11:49:34;37.07;;;23.50;;
11008;SDS011;5557;51.670;7.788;2024-03-06T11:52:04;33.13;;;21.50;;
11008;SDS011;5557;51.670;7.788;2024-03-06T11:54:34;28.97;;;21.40;;
11008;SDS011;5557;51.670;7.788;2024-03-06T11:57:02;31.03;;;21.70;;
11008;SDS011;5557;51.670;7.788;2024-03-06T11:59:31;29.93;;;20.77;;
11008;SDS011;5557;51.670;7.788;2024-03-06T12:02:00;27.70;;;20.73;;
11008;SDS011;5557;51.670;7.788;2024-03-06T12:04:30;33.73;;;22.43;;
11008;SDS011;5557;51.670;7.788;2024-03-06T12:06:58;27.70;;;21.20;;
11008;SDS011;5557;51.670;7.788;2024-03-06T12:09:26;27.03;;;20.77;;
11008;SDS011;5557;51.670;7.788;2024-03-06T12:11:55;31.30;;;21.50;;
11008;SDS011;5557;51.670;7.788;2024-03-06T12:14:23;28.90;;;20.30;;
11008;SDS011;5557;51.670;7.788;2024-03-06T12:16:57;27.43;;;19.17;;
11008;SDS011;5557;51.670;7.788;2024-03-06T12:19:25;29.07;;;20.93;;
11008;SDS011;5557;51.670;7.788;2024-03-06T12:21:54;30.60;;;19.10;;
11008;SDS011;5557;51.670;7.788;2024-03-06T12:24:21;32.83;;;20.23;;
11008;SDS011;5557;51.670;7.788;2024-03-06T12:26:57;32.73;;;20.20;;
11008;SDS011;5557;51.670;7.788;2024-03-06T12:29:30;43.23;;;23.47;;
11008;SDS011;5557;51.670;7.788;2024-03-06T12:31:59;30.50;;;22.60;;
11008;SDS011;5557;51.670;7.788;2024-03-06T12:34:27;37.50;;;20.70;;
11008;SDS011;5557;51.670;7.788;2024-03-06T12:36:54;29.93;;;20.40;;
11008;SDS011;5557;51.670;7.788;2024-03-06T12:39:21;25.40;;;18.03;;
11008;SDS011;5557;51.670;7.788;2024-03-06T12:41:50;27.63;;;20.00;;
11008;SDS011;5557;51.670;7.788;2024-03-06T12:44:21;24.20;;;18.07;;
11008;SDS011;5557;51.670;7.788;2024-03-06T12:46:48;24.70;;;18.27;;
11008;SDS011;5557;51.670;7.788;2024-03-06T12:49:16;23.93;;;17.90;;
11008;SDS011;5557;51.670;7.788;2024-03-06T12:51:44;22.70;;;17.60;;
11008;SDS011;5557;51.670;7.788;2024-03-06T12:54:11;24.10;;;17.50;;
11008;SDS011;5557;51.670;7.788;2024-03-06T12:56:38;29.63;;;19.30;;
11008;SDS011;5557;51.670;7.788;2024-03-06T12:59:08;26.93;;;19.03;;
11008;SDS011;5557;51.670;7.788;2024-03-06T13:01:35;25.10;;;18.50;;
11008;SDS011;5557;51.670;7.788;2024-03-06T13:04:02;28.57;;;21.10;;
11008;SDS011;5557;51.670;7.788;2024-03-06T13:06:33;28.70;;;19.50;;
11008;SDS011;5557;51.670;7.788;2024-03-06T13:09:00;27.20;;;19.10;;
11008;SDS011;5557;51.670;7.788;2024-03-06T13:11:27;30.17;;;19.67;;
11008;SDS011;5557;51.670;7.788;2024-03-06T13:13:54;27.90;;;19.87;;
11008;SDS011;5557;51.670;7.788;2024-03-06T13:16:21;29.97;;;20.97;;
11008;SDS011;5557;51.670;7.788;2024-03-06T13:18:48;28.20;;;18.77;;
11008;SDS011;5557;51.670;7.788;2024-03-06T13:21:20;37.57;;;20.07;;
11008;SDS011;5557;51.670;7.788;2024-03-06T13:23:47;29.20;;;18.77;;
11008;SDS011;5557;51.670;7.788;2024-03-06T13:26:14;25.90;;;18.77;;
11008;SDS011;5557;51.670;7.788;2024-03-06T13:28:42;31.40;;;19.10;;
11008;SDS011;5557;51.670;7.788;2024-03-06T13:31:09;27.30;;;18.40;;
11008;SDS011;5557;51.670;7.788;2024-03-06T13:33:37;30.27;;;18.97;;
11008;SDS011;5557;51.670;7.788;2024-03-06T13:36:05;32.40;;;20.33;;
11008;SDS011;5557;51.670;7.788;2024-03-06T13:38:34;27.00;;;20.23;;
11008;SDS011;5557;51.670;7.788;2024-03-06T13:41:02;30.70;;;20.20;;
11008;SDS011;5557;51.670;7.788;2024-03-06T13:43:29;26.47;;;19.00;;
11008;SDS011;5557;51.670;7.788;2024-03-06T13:45:58;25.13;;;17.97;;
11008;SDS011;5557;51.670;7.788;2024-03-06T13:48:25;26.60;;;19.40;;
11008;SDS011;5557;51.670;7.788;2024-03-06T13:50:52;24.10;;;17.97;;
11008;SDS011;5557;51.670;7.788;2024-03-06T13:53:19;33.53;;;20.60;;
11008;SDS011;5557;51.670;7.788;2024-03-06T13:55:46;31.47;;;19.27;;
11008;SDS011;5557;51.670;7.788;2024-03-06T13:58:13;28.60;;;20.30;;
11008;SDS011;5557;51.670;7.788;2024-03-06T14:00:41;28.40;;;19.53;;
11008;SDS011;5557;51.670;7.788;2024-03-06T14:03:08;33.33;;;20.40;;
11008;SDS011;5557;51.670;7.788;2024-03-06T14:05:35;30.40;;;20.80;;
11008;SDS011;5557;51.670;7.788;2024-03-06T14:08:02;28.90;;;19.60;;
11008;SDS011;5557;51.670;7.788;2024-03-06T14:10:29;30.13;;;20.10;;
11008;SDS011;5557;51.670;7.788;2024-03-06T14:13:00;29.60;;;19.53;;
11008;SDS011;5557;51.670;7.788;2024-03-06T14:15:27;28.20;;;18.70;;
11008;SDS011;5557;51.670;7.788;2024-03-06T14:17:54;28.87;;;19.40;;
11008;SDS011;5557;51.670;7.788;2024-03-06T14:20:22;27.40;;;19.90;;
11008;SDS011;5557;51.670;7.788;2024-03-06T14:22:50;31.20;;;19.83;;
11008;SDS011;5557;51.670;7.788;2024-03-06T14:25:17;25.00;;;19.13;;
11008;SDS011;5557;51.670;7.788;2024-03-06T14:27:44;29.70;;;20.20;;
11008;SDS011;5557;51.670;7.788;2024-03-06T14:30:11;33.13;;;19.43;;
11008;SDS011;5557;51.670;7.788;2024-03-06T14:32:39;28.53;;;18.53;;
11008;SDS011;5557;51.670;7.788;2024-03-06T14:35:07;25.20;;;18.77;;
11008;SDS011;5557;51.670;7.788;2024-03-06T14:37:35;27.33;;;19.47;;
11008;SDS011;5557;51.670;7.788;2024-03-06T14:40:02;29.43;;;19.60;;
11008;SDS011;5557;51.670;7.788;2024-03-06T14:42:35;28.63;;;20.90;;
11008;SDS011;5557;51.670;7.788;2024-03-06T14:45:02;33.80;;;20.53;;
11008;SDS011;5557;51.670;7.788;2024-03-06T14:47:32;30.80;;;21.23;;
11008;SDS011;5557;51.670;7.788;2024-03-06T14:49:59;29.17;;;20.50;;
11008;SDS011;5557;51.670;7.788;2024-03-06T14:52:26;30.37;;;21.30;;